createdAt,value
2018-11-22T00:01:33.414Z,22.40
2018-11-22T00:04:03.849Z,22.30
2018-11-22T00:06:34.004Z,21.70
2018-11-22T00:09:03.939Z,21.60
2018-11-22T00:11:34.395Z,22.03
2018-11-22T00:14:04.920Z,22.87
2018-11-22T00:16:35.104Z,22.17
2018-11-22T00:19:05.754Z,24.27
2018-11-22T00:21:36.119Z,23.33
2018-11-22T00:24:06.419Z,21.57
2018-11-22T00:26:36.735Z,21.93
2018-11-22T00:29:06.975Z,21.33
2018-11-22T00:31:36.435Z,21.27
2018-11-22T00:34:07.579Z,21.00
2018-11-22T00:36:38.136Z,22.90
2018-11-22T00:39:11.375Z,20.87
2018-11-22T00:41:40.779Z,20.23
2018-11-22T00:44:10.875Z,19.50
2018-11-22T00:46:41.370Z,18.63
2018-11-22T00:49:11.584Z,20.87
2018-11-22T00:51:42.384Z,20.70
2018-11-22T00:54:12.639Z,20.50
2018-11-22T00:56:42.984Z,20.57
2018-11-22T00:59:13.409Z,21.03
2018-11-22T01:01:43.645Z,20.37
2018-11-22T01:04:14.059Z,20.47
2018-11-22T01:06:44.464Z,19.33
2018-11-22T01:09:15.694Z,21.27
2018-11-22T01:11:46.055Z,21.40
2018-11-22T01:14:16.644Z,20.07
2018-11-22T01:16:46.845Z,21.20
2018-11-22T01:19:16.959Z,20.07
2018-11-22T01:21:47.724Z,19.83
2018-11-22T01:24:18.171Z,20.30
2018-11-22T01:26:48.030Z,22.50
2018-11-22T01:29:17.382Z,20.43
2018-11-22T01:31:47.949Z,21.37
2018-11-22T01:34:18.704Z,21.03
2018-11-22T01:36:48.935Z,20.83
2018-11-22T01:39:19.600Z,20.30
2018-11-22T01:41:50.694Z,20.73
2018-11-22T01:44:20.820Z,23.70
2018-11-22T01:46:51.104Z,21.33
2018-11-22T01:49:21.229Z,21.53
2018-11-22T01:51:51.485Z,23.23
2018-11-22T01:54:21.554Z,20.97
2018-11-22T01:56:51.005Z,21.80
2018-11-22T01:59:21.440Z,21.80
2018-11-22T02:01:52.010Z,22.87
2018-11-22T02:04:21.712Z,22.33
2018-11-22T02:06:52.223Z,22.57
2018-11-22T02:09:22.261Z,23.33
2018-11-22T02:11:52.230Z,23.00
2018-11-22T02:14:22.500Z,22.13
2018-11-22T02:16:52.609Z,22.03
2018-11-22T02:19:22.264Z,22.27
2018-11-22T02:21:52.318Z,22.07
2018-11-22T02:24:22.444Z,21.13
2018-11-22T02:26:52.614Z,21.40
2018-11-22T02:29:23.574Z,21.10
2018-11-22T02:31:53.585Z,20.43
2018-11-22T02:34:23.405Z,21.43
2018-11-22T02:36:53.805Z,21.33
2018-11-22T02:39:23.558Z,20.77
2018-11-22T02:41:53.814Z,22.77
2018-11-22T02:44:24.130Z,22.13
2018-11-22T02:46:53.820Z,21.30
2018-11-22T02:49:24.275Z,21.10
2018-11-22T02:51:54.179Z,22.90
2018-11-22T02:54:25.075Z,21.13
2018-11-22T02:56:55.304Z,22.10
2018-11-22T02:59:25.301Z,22.70
2018-11-22T03:01:55.870Z,21.80
2018-11-22T03:04:26.487Z,21.70
2018-11-22T03:06:56.904Z,21.53
2018-11-22T03:09:27.470Z,20.90
2018-11-22T03:11:56.870Z,21.80
2018-11-22T03:14:26.944Z,21.73
2018-11-22T03:16:57.436Z,22.60
2018-11-22T03:19:27.643Z,21.50
2018-11-22T03:21:58.185Z,22.30
2018-11-22T03:24:28.660Z,22.13
2018-11-22T03:26:58.439Z,20.77
2018-11-22T03:29:28.805Z,20.40
2018-11-22T03:31:58.880Z,21.13
2018-11-22T03:34:28.986Z,21.40
2018-11-22T03:36:59.110Z,20.50
2018-11-22T03:39:29.790Z,22.00
2018-11-22T03:42:00.450Z,21.17
2018-11-22T03:44:30.911Z,21.80
2018-11-22T03:47:00.691Z,19.93
2018-11-22T03:49:31.291Z,20.00
2018-11-22T03:52:01.500Z,19.20
2018-11-22T03:54:31.300Z,18.93
2018-11-22T03:57:01.780Z,20.63
2018-11-22T03:59:32.394Z,21.17
2018-11-22T04:02:03.101Z,21.50
2018-11-22T04:04:33.559Z,20.70
2018-11-22T04:07:04.061Z,20.67
2018-11-22T04:09:34.400Z,20.87
2018-11-22T04:12:04.710Z,20.67
2018-11-22T04:14:38.025Z,21.10
2018-11-22T04:17:08.160Z,20.07
2018-11-22T04:19:37.867Z,19.80
2018-11-22T04:22:08.465Z,18.57
2018-11-22T04:24:38.601Z,19.80
2018-11-22T04:27:08.696Z,20.37
2018-11-22T04:29:38.937Z,20.17
2018-11-22T04:32:09.455Z,19.83
2018-11-22T04:34:39.615Z,20.33
2018-11-22T04:37:10.256Z,17.83
2018-11-22T04:39:40.720Z,18.10
2018-11-22T04:42:11.065Z,20.10
2018-11-22T04:44:41.621Z,19.20
2018-11-22T04:47:11.945Z,18.83
2018-11-22T04:49:42.535Z,19.27
2018-11-22T04:52:12.280Z,19.60
2018-11-22T04:54:41.951Z,19.43
2018-11-22T04:57:12.110Z,19.33
2018-11-22T04:59:42.172Z,18.97
2018-11-22T05:02:12.835Z,18.30
2018-11-22T05:04:43.460Z,18.87
2018-11-22T05:07:13.338Z,18.73
2018-11-22T05:09:42.921Z,19.53
2018-11-22T05:12:13.415Z,18.70
2018-11-22T05:14:44.081Z,18.50
2018-11-22T05:17:14.585Z,18.00
2018-11-22T05:19:44.550Z,18.73
2018-11-22T05:22:15.055Z,18.77
2018-11-22T05:24:45.335Z,18.60
2018-11-22T05:27:15.658Z,17.90
2018-11-22T05:29:46.150Z,19.03
2018-11-22T05:32:16.031Z,18.57
2018-11-22T05:34:46.505Z,18.70
2018-11-22T05:37:17.190Z,18.10
2018-11-22T05:39:47.965Z,18.20
2018-11-22T05:42:18.989Z,17.70
2018-11-22T05:44:49.195Z,18.43
2018-11-22T05:47:19.416Z,18.27
2018-11-22T05:49:49.870Z,19.23
2018-11-22T05:52:20.630Z,17.93
2018-11-22T05:54:51.295Z,19.70
2018-11-22T05:57:21.251Z,19.37
2018-11-22T05:59:51.080Z,16.87
2018-11-22T06:02:21.091Z,19.40
2018-11-22T06:04:51.584Z,18.20
2018-11-22T06:07:21.756Z,17.87
2018-11-22T06:09:51.885Z,19.13
2018-11-22T06:12:22.050Z,18.93
2018-11-22T06:14:51.765Z,19.97
2018-11-22T06:17:22.381Z,19.73
2018-11-22T06:19:52.755Z,18.87
2018-11-22T06:22:22.475Z,17.90
2018-11-22T06:24:53.224Z,18.70
2018-11-22T06:27:23.815Z,18.30
2018-11-22T06:29:54.325Z,19.07
2018-11-22T06:32:24.915Z,17.20
2018-11-22T06:34:54.950Z,18.40
2018-11-22T06:37:24.845Z,18.90
2018-11-22T06:39:55.499Z,16.83
2018-11-22T06:42:25.740Z,17.63
2018-11-22T06:44:56.286Z,16.93
2018-11-22T06:47:26.190Z,16.83
2018-11-22T06:50:06.450Z,18.43
2018-11-22T06:52:36.925Z,17.07
2018-11-22T06:55:08.000Z,17.67
2018-11-22T06:57:38.599Z,18.70
2018-11-22T07:00:15.096Z,15.90
2018-11-22T07:02:44.534Z,16.90
2018-11-22T07:05:15.050Z,17.10
2018-11-22T07:07:45.499Z,16.67
2018-11-22T07:10:16.240Z,17.50
2018-11-22T07:12:46.221Z,17.43
2018-11-22T07:15:17.359Z,17.07
2018-11-22T07:17:47.879Z,19.43
2018-11-22T07:20:19.649Z,18.43
2018-11-22T07:22:51.061Z,18.80
2018-11-22T07:25:22.640Z,18.13
2018-11-22T07:27:52.829Z,18.17
2018-11-22T07:30:42.423Z,20.50
2018-11-22T07:33:11.235Z,19.77
2018-11-22T07:35:41.490Z,19.70
2018-11-22T07:38:11.880Z,19.67
2018-11-22T07:40:42.569Z,19.63
2018-11-22T07:43:12.455Z,19.17
2018-11-22T07:45:43.729Z,19.73
2018-11-22T07:48:14.782Z,18.77
2018-11-22T07:50:45.530Z,19.67
2018-11-22T07:53:15.314Z,21.03
2018-11-22T07:55:46.529Z,20.77
2018-11-22T07:58:16.754Z,19.53
2018-11-22T08:00:47.969Z,19.27
2018-11-22T08:03:17.304Z,20.20
2018-11-22T08:05:48.061Z,20.43
2018-11-22T08:08:18.235Z,18.47
2018-11-22T08:10:48.320Z,19.57
2018-11-22T08:13:18.375Z,18.13
2018-11-22T08:15:48.942Z,19.13
2018-11-22T08:18:19.355Z,19.43
2018-11-22T08:20:49.019Z,20.80
2018-11-22T08:23:19.494Z,19.10
2018-11-22T08:25:48.874Z,19.07
2018-11-22T08:28:18.900Z,19.10
2018-11-22T08:30:49.741Z,19.00
2018-11-22T08:33:20.400Z,20.03
2018-11-22T08:35:50.465Z,18.27
2018-11-22T08:38:20.760Z,19.67
2018-11-22T08:40:50.534Z,19.10
2018-11-22T08:43:20.860Z,18.87
2018-11-22T08:45:51.224Z,17.50
2018-11-22T08:48:20.925Z,18.30
2018-11-22T08:50:51.065Z,17.97
2018-11-22T08:53:21.305Z,17.97
2018-11-22T08:55:51.240Z,18.57
2018-11-22T08:58:21.200Z,17.70
2018-11-22T09:00:51.036Z,16.83
2018-11-22T09:03:20.834Z,17.43
2018-11-22T09:05:50.898Z,17.57
2018-11-22T09:08:20.952Z,17.23
2018-11-22T09:10:50.714Z,17.20
2018-11-22T09:13:21.514Z,17.03
2018-11-22T09:15:52.164Z,16.27
2018-11-22T09:18:23.154Z,16.97
2018-11-22T09:20:53.982Z,16.83
2018-11-22T09:23:25.699Z,17.33
2018-11-22T09:25:56.009Z,17.97
2018-11-22T09:28:27.371Z,16.67
2018-11-22T09:30:57.259Z,18.47
2018-11-22T09:33:37.564Z,16.83
2018-11-22T09:36:07.548Z,16.93
2018-11-22T09:38:37.077Z,18.03
2018-11-22T09:41:08.337Z,16.77
2018-11-22T09:43:38.557Z,16.27
2018-11-22T09:46:08.438Z,16.20
2018-11-22T09:48:38.873Z,16.77
2018-11-22T09:51:08.989Z,17.63
2018-11-22T09:53:39.608Z,16.73
2018-11-22T09:56:10.368Z,17.23
2018-11-22T09:58:40.938Z,15.73
2018-11-22T10:01:11.637Z,16.23
2018-11-22T10:03:42.187Z,15.53
2018-11-22T10:06:12.787Z,14.97
2018-11-22T10:08:43.024Z,17.03
2018-11-22T10:11:13.477Z,14.97
2018-11-22T10:13:44.207Z,16.53
2018-11-22T10:16:14.718Z,16.27
2018-11-22T10:18:45.069Z,14.67
2018-11-22T10:21:15.292Z,14.53
2018-11-22T10:23:45.614Z,15.17
2018-11-22T10:26:15.998Z,15.67
2018-11-22T10:28:46.752Z,15.43
2018-11-22T10:31:17.627Z,17.60
2018-11-22T10:33:47.723Z,16.17
2018-11-22T10:36:18.438Z,16.97
2018-11-22T10:38:48.197Z,15.60
2018-11-22T10:41:18.162Z,15.17
2018-11-22T10:43:48.864Z,15.57
2018-11-22T10:46:20.085Z,15.07
2018-11-22T10:48:50.589Z,16.03
2018-11-22T10:51:21.512Z,16.63
2018-11-22T10:53:52.801Z,16.10
2018-11-22T10:56:23.139Z,16.83
2018-11-22T10:58:53.544Z,16.47
2018-11-22T11:01:41.034Z,16.50
2018-11-22T11:04:27.909Z,17.13
2018-11-22T11:07:16.888Z,15.93
2018-11-22T11:09:47.369Z,15.63
2018-11-22T11:12:17.549Z,16.67
2018-11-22T11:14:47.414Z,16.63
2018-11-22T11:17:17.394Z,16.60
2018-11-22T11:19:47.385Z,17.03
2018-11-22T11:22:17.640Z,16.87
2018-11-22T11:24:47.865Z,15.60
2018-11-22T11:27:17.994Z,17.23
2018-11-22T11:29:48.069Z,16.83
2018-11-22T11:32:18.307Z,20.73
2018-11-22T11:34:48.824Z,15.50
2018-11-22T11:37:19.018Z,16.73
2018-11-22T11:39:49.099Z,15.93
2018-11-22T11:42:19.819Z,16.37
2018-11-22T11:44:50.224Z,15.80
2018-11-22T11:47:21.045Z,16.53
2018-11-22T11:49:52.142Z,16.30
2018-11-22T11:52:22.304Z,15.97
2018-11-22T11:54:53.184Z,17.00
2018-11-22T11:57:23.829Z,17.13
2018-11-22T11:59:53.499Z,16.97
2018-11-22T12:02:24.084Z,18.77
2018-11-22T12:04:53.949Z,16.70
2018-11-22T12:07:24.260Z,16.97
2018-11-22T12:09:56.293Z,18.23
2018-11-22T12:12:26.380Z,17.13
2018-11-22T12:14:56.270Z,17.90
2018-11-22T12:17:26.329Z,16.83
2018-11-22T12:19:57.034Z,18.43
2018-11-22T12:22:27.410Z,17.07
2018-11-22T12:24:58.050Z,16.27
2018-11-22T12:27:28.085Z,17.77
2018-11-22T12:29:57.832Z,17.23
2018-11-22T12:32:35.435Z,16.97
2018-11-22T12:35:33.305Z,17.13
2018-11-22T12:38:21.135Z,17.80
2018-11-22T12:40:51.395Z,15.87
2018-11-22T12:43:21.275Z,18.03
2018-11-22T12:45:52.111Z,18.40
2018-11-22T12:48:22.974Z,16.53
2018-11-22T12:50:52.745Z,18.70
2018-11-22T12:53:23.289Z,17.13
2018-11-22T12:55:53.215Z,16.67
2018-11-22T12:58:23.840Z,18.07
2018-11-22T13:00:54.130Z,18.30
2018-11-22T13:03:24.295Z,16.40
2018-11-22T13:05:55.434Z,17.20
2018-11-22T13:08:25.600Z,16.80
2018-11-22T13:10:56.197Z,15.70
2018-11-22T13:13:26.340Z,16.23
2018-11-22T13:15:57.225Z,19.27
2018-11-22T13:18:27.899Z,15.70
2018-11-22T13:20:57.945Z,15.03
2018-11-22T13:23:28.515Z,15.47
2018-11-22T13:25:59.185Z,16.33
2018-11-22T13:28:29.376Z,15.47
2018-11-22T13:30:59.443Z,14.17
2018-11-22T13:33:29.635Z,16.43
2018-11-22T13:36:01.046Z,14.43
2018-11-22T13:38:33.790Z,16.40
2018-11-22T13:41:04.541Z,15.40
2018-11-22T13:43:34.660Z,14.70
2018-11-22T13:46:05.427Z,13.20
2018-11-22T13:48:35.761Z,12.90
2018-11-22T13:51:06.120Z,14.20
2018-11-22T13:53:36.516Z,14.20
2018-11-22T13:56:06.796Z,14.20
2018-11-22T13:58:37.300Z,14.87
2018-11-22T14:01:07.335Z,14.27
2018-11-22T14:03:37.046Z,14.90
2018-11-22T14:06:06.859Z,13.93
2018-11-22T14:08:36.640Z,14.97
2018-11-22T14:11:13.535Z,15.13
2018-11-22T14:13:37.521Z,15.40
2018-11-22T14:16:07.553Z,15.47
2018-11-22T14:18:37.280Z,15.67
2018-11-22T14:21:07.386Z,15.20
2018-11-22T14:23:37.730Z,16.17
2018-11-22T14:26:07.896Z,14.50
2018-11-22T14:28:38.245Z,15.50
2018-11-22T14:31:09.761Z,16.57
2018-11-22T14:33:47.032Z,15.20
2018-11-22T14:36:18.041Z,15.07
2018-11-22T14:38:47.971Z,15.93
2018-11-22T14:41:18.486Z,16.80
2018-11-22T14:43:48.947Z,15.43
2018-11-22T14:46:20.646Z,16.63
2018-11-22T14:48:50.925Z,18.50
2018-11-22T14:51:37.138Z,16.97
2018-11-22T14:54:07.980Z,16.33
2018-11-22T14:56:38.677Z,16.37
2018-11-22T14:59:08.516Z,16.60
2018-11-22T15:01:38.857Z,16.97
2018-11-22T15:04:09.326Z,15.77
2018-11-22T15:06:39.671Z,17.07
2018-11-22T15:09:11.706Z,19.80
2018-11-22T15:11:44.175Z,19.33
2018-11-22T15:14:14.665Z,17.70
2018-11-22T15:16:48.165Z,19.57
2018-11-22T15:19:17.956Z,20.57
2018-11-22T15:21:49.381Z,21.20
2018-11-22T15:24:20.356Z,22.43
2018-11-22T15:26:50.456Z,17.80
2018-11-22T15:29:20.718Z,18.67
2018-11-22T15:31:51.246Z,18.87
2018-11-22T15:34:20.586Z,20.30
2018-11-22T15:36:50.587Z,18.33
2018-11-22T15:39:20.555Z,17.60
2018-11-22T15:41:50.861Z,17.77
2018-11-22T15:44:21.140Z,18.17
2018-11-22T15:46:51.166Z,17.77
2018-11-22T15:49:21.315Z,19.13
2018-11-22T15:51:52.393Z,17.30
2018-11-22T15:54:22.450Z,17.67
2018-11-22T15:56:52.976Z,17.57
2018-11-22T15:59:23.185Z,15.93
2018-11-22T16:01:53.565Z,16.13
2018-11-22T16:04:23.840Z,18.40
2018-11-22T16:06:54.545Z,16.93
2018-11-22T16:09:25.199Z,16.30
2018-11-22T16:11:55.331Z,17.50
2018-11-22T16:14:25.286Z,15.93
2018-11-22T16:16:55.765Z,20.40
2018-11-22T16:19:25.640Z,18.67
2018-11-22T16:21:55.955Z,16.80
2018-11-22T16:24:26.735Z,19.30
2018-11-22T16:26:57.550Z,17.03
2018-11-22T16:29:28.230Z,17.50
2018-11-22T16:31:58.940Z,17.07
2018-11-22T16:34:29.830Z,16.67
2018-11-22T16:36:59.825Z,16.80
2018-11-22T16:39:29.755Z,18.17
2018-11-22T16:41:59.869Z,16.73
2018-11-22T16:44:30.400Z,18.13
2018-11-22T16:47:01.180Z,17.30
2018-11-22T16:49:31.051Z,16.73
2018-11-22T16:52:01.002Z,17.00
2018-11-22T16:54:31.320Z,17.00
2018-11-22T16:57:01.595Z,18.63
2018-11-22T16:59:31.545Z,16.93
2018-11-22T17:02:01.820Z,18.07
2018-11-22T17:04:31.935Z,19.33
2018-11-22T17:07:02.474Z,19.50
2018-11-22T17:09:32.704Z,18.07
2018-11-22T17:12:03.085Z,23.73
2018-11-22T17:14:32.879Z,23.80
2018-11-22T17:17:03.320Z,21.57
2018-11-22T17:19:32.819Z,21.80
2018-11-22T17:22:03.419Z,22.27
2018-11-22T17:24:33.569Z,20.00
2018-11-22T17:27:04.584Z,20.30
2018-11-22T17:29:34.979Z,21.30
2018-11-22T17:32:05.580Z,19.30
2018-11-22T17:34:35.219Z,19.10
2018-11-22T17:37:05.556Z,18.47
2018-11-22T17:39:35.714Z,18.83
2018-11-22T17:42:05.964Z,21.17
2018-11-22T17:44:37.004Z,18.57
2018-11-22T17:47:10.121Z,19.33
2018-11-22T17:49:52.398Z,17.87
2018-11-22T17:52:46.189Z,19.23
2018-11-22T17:55:25.794Z,18.73
2018-11-22T17:58:12.514Z,17.67
2018-11-22T18:00:54.019Z,17.97
2018-11-22T18:03:29.997Z,18.80
2018-11-22T18:06:39.639Z,20.50
2018-11-22T18:09:45.089Z,21.07
2018-11-22T18:12:17.969Z,19.80
2018-11-22T18:14:59.754Z,77.70
2018-11-22T18:17:33.049Z,22.83
2018-11-22T18:20:07.387Z,19.87
2018-11-22T18:22:51.094Z,17.03
2018-11-22T18:25:31.908Z,18.30
2018-11-22T18:28:03.484Z,17.73
2018-11-22T18:30:42.529Z,18.77
2018-11-22T18:33:18.954Z,17.83
2018-11-22T18:36:11.970Z,18.50
2018-11-22T18:38:50.269Z,17.73
2018-11-22T18:41:29.554Z,19.13
2018-11-22T18:44:04.488Z,20.87
2018-11-22T18:46:50.046Z,21.10
2018-11-22T18:49:41.879Z,18.53
2018-11-22T18:52:27.180Z,18.27
2018-11-22T18:55:04.406Z,19.17
2018-11-22T18:57:45.669Z,19.67
2018-11-22T19:00:39.759Z,19.37
2018-11-22T19:03:20.622Z,20.43
2018-11-22T19:05:55.687Z,19.43
2018-11-22T19:08:33.484Z,19.00
2018-11-22T19:11:16.915Z,18.87
2018-11-22T19:13:56.234Z,19.97
2018-11-22T19:16:29.464Z,19.20
2018-11-22T19:19:12.649Z,22.83
2018-11-22T19:21:46.544Z,23.33
2018-11-22T19:24:34.819Z,24.67
2018-11-22T19:27:09.688Z,23.40
2018-11-22T19:30:06.861Z,23.13
2018-11-22T19:32:42.874Z,20.67
2018-11-22T19:35:15.689Z,22.57
2018-11-22T19:37:50.794Z,21.93
2018-11-22T19:40:53.714Z,24.87
2018-11-22T19:43:23.534Z,24.07
2018-11-22T19:45:52.986Z,22.93
2018-11-22T19:48:37.944Z,25.00
2018-11-22T19:51:13.719Z,18.00
2018-11-22T19:53:45.539Z,17.57
2018-11-22T19:56:32.559Z,16.33
2018-11-22T19:59:06.644Z,19.93
2018-11-22T20:01:42.679Z,20.50
2018-11-22T20:04:24.004Z,21.77
2018-11-22T20:07:04.255Z,22.63
2018-11-22T20:09:38.779Z,21.93
2018-11-22T20:12:09.659Z,22.17
2018-11-22T20:14:56.214Z,20.90
2018-11-22T20:17:32.760Z,20.67
2018-11-22T20:20:12.294Z,20.53
2018-11-22T20:23:05.315Z,19.17
2018-11-22T20:25:44.959Z,18.27
2018-11-22T20:28:32.919Z,19.27
2018-11-22T20:31:08.500Z,19.97
2018-11-22T20:33:59.839Z,19.87
2018-11-22T20:36:42.994Z,20.37
2018-11-22T20:39:46.479Z,18.37
2018-11-22T20:42:22.339Z,18.13
2018-11-22T20:45:08.616Z,20.27
2018-11-22T20:47:45.260Z,19.47
2018-11-22T20:50:21.409Z,19.37
2018-11-22T20:53:03.070Z,19.53
2018-11-22T20:55:41.829Z,21.40
2018-11-22T20:58:17.504Z,21.97
2018-11-22T21:00:52.280Z,20.03
2018-11-22T21:03:28.889Z,20.80
2018-11-22T21:06:10.789Z,20.83
2018-11-22T21:08:48.768Z,20.67
2018-11-22T21:11:24.490Z,21.40
2018-11-22T21:13:55.114Z,21.77
2018-11-22T21:16:26.274Z,24.53
2018-11-22T21:18:58.419Z,23.67
2018-11-22T21:21:30.865Z,18.17
2018-11-22T21:24:02.451Z,18.67
2018-11-22T21:26:35.454Z,18.83
2018-11-22T21:29:06.200Z,18.67
2018-11-22T21:31:36.302Z,18.63
2018-11-22T21:34:06.764Z,21.80
2018-11-22T21:36:37.320Z,20.40
2018-11-22T21:39:11.044Z,19.20
2018-11-22T21:41:41.744Z,20.00
2018-11-22T21:44:12.285Z,20.17
2018-11-22T21:46:42.564Z,21.93
2018-11-22T21:49:12.519Z,24.33
2018-11-22T21:51:43.405Z,28.73
2018-11-22T21:54:14.247Z,25.70
2018-11-22T21:56:44.669Z,26.90
2018-11-22T21:59:14.541Z,25.20
2018-11-22T22:01:44.800Z,27.67
2018-11-22T22:04:15.612Z,28.10
2018-11-22T22:06:46.049Z,29.23
2018-11-22T22:09:15.729Z,27.90
2018-11-22T22:11:45.915Z,27.30
2018-11-22T22:14:16.489Z,24.73
2018-11-22T22:16:46.574Z,27.87
2018-11-22T22:19:17.041Z,25.27
2018-11-22T22:21:47.320Z,19.77
2018-11-22T22:24:17.642Z,21.67
2018-11-22T22:26:48.170Z,24.63
2018-11-22T22:29:18.635Z,23.27
2018-11-22T22:31:49.050Z,24.10
2018-11-22T22:34:19.179Z,22.40
2018-11-22T22:36:49.554Z,23.33
2018-11-22T22:39:19.749Z,23.10
2018-11-22T22:41:49.412Z,23.37
2018-11-22T22:44:19.014Z,22.43
2018-11-22T22:46:49.814Z,22.90
2018-11-22T22:49:19.832Z,23.67
2018-11-22T22:51:49.572Z,23.60
2018-11-22T22:54:20.704Z,23.70
2018-11-22T22:56:50.604Z,26.30
2018-11-22T22:59:20.595Z,24.17
2018-11-22T23:01:50.689Z,24.87
2018-11-22T23:04:21.350Z,25.93
2018-11-22T23:06:51.609Z,28.30
2018-11-22T23:09:22.010Z,33.13
2018-11-22T23:11:52.184Z,35.63
2018-11-22T23:14:22.574Z,28.37
2018-11-22T23:16:52.389Z,27.43
2018-11-22T23:19:22.266Z,33.27
2018-11-22T23:21:52.494Z,33.13
2018-11-22T23:24:22.664Z,30.80
2018-11-22T23:26:53.309Z,31.50
2018-11-22T23:29:22.985Z,26.57
2018-11-22T23:31:53.048Z,26.40
2018-11-22T23:34:23.135Z,25.40
2018-11-22T23:36:53.469Z,27.33
2018-11-22T23:39:24.254Z,26.10
2018-11-22T23:41:54.115Z,31.03
2018-11-22T23:44:24.745Z,35.13
2018-11-22T23:46:55.115Z,30.63
2018-11-22T23:49:25.504Z,27.30
2018-11-22T23:51:55.768Z,26.20
2018-11-22T23:54:26.099Z,24.43
2018-11-22T23:56:56.069Z,23.53
2018-11-22T23:59:26.924Z,23.83
